createdAt,value
2018-05-01T00:02:25.867Z,85.34
2018-05-01T00:04:53.398Z,85.62
2018-05-01T00:07:21.874Z,85.39
2018-05-01T00:09:49.555Z,85.94
2018-05-01T00:12:17.069Z,85.94
2018-05-01T00:14:45.586Z,86.09
2018-05-01T00:17:13.836Z,86.18
2018-05-01T00:19:41.365Z,86.11
2018-05-01T00:22:09.047Z,86.00
2018-05-01T00:24:37.064Z,86.27
2018-05-01T00:27:05.603Z,86.11
2018-05-01T00:29:33.135Z,85.48
2018-05-01T00:32:01.439Z,85.80
2018-05-01T00:34:28.995Z,85.46
2018-05-01T00:36:56.541Z,85.52
2018-05-01T00:39:24.091Z,85.52
2018-05-01T00:41:51.643Z,85.36
2018-05-01T00:44:19.308Z,85.44
2018-05-01T00:46:47.119Z,85.27
2018-05-01T00:49:15.554Z,85.38
2018-05-01T00:51:43.139Z,85.47
2018-05-01T00:54:11.501Z,85.66
2018-05-01T00:56:39.024Z,85.37
2018-05-01T00:59:06.573Z,85.61
2018-05-01T01:01:34.120Z,85.67
2018-05-01T01:04:01.770Z,85.45
2018-05-01T01:06:30.047Z,85.42
2018-05-01T01:08:57.582Z,85.34
2018-05-01T01:11:25.101Z,85.45
2018-05-01T01:13:53.350Z,85.45
2018-05-01T01:16:20.886Z,85.28
2018-05-01T01:18:48.676Z,85.56
2018-05-01T01:21:16.238Z,85.50
2018-05-01T01:23:44.395Z,85.23
2018-05-01T01:26:12.706Z,84.66
2018-05-01T01:28:41.115Z,84.57
2018-05-01T01:31:09.043Z,84.21
2018-05-01T01:33:36.568Z,84.26
2018-05-01T01:36:03.555Z,84.04
2018-05-01T01:38:30.579Z,83.70
2018-05-01T01:40:57.570Z,83.61
2018-05-01T01:43:24.555Z,83.44
2018-05-01T01:45:51.600Z,83.36
2018-05-01T01:48:19.719Z,83.26
2018-05-01T01:50:46.743Z,83.16
2018-05-01T01:53:14.515Z,82.94
2018-05-01T01:55:41.518Z,82.99
2018-05-01T01:58:09.107Z,83.00
2018-05-01T02:00:36.091Z,83.01
2018-05-01T02:03:03.084Z,83.02
2018-05-01T02:05:30.127Z,83.12
2018-05-01T02:07:57.114Z,83.10
2018-05-01T02:10:24.125Z,82.96
2018-05-01T02:12:51.277Z,82.78
2018-05-01T02:15:19.042Z,82.82
2018-05-01T02:17:46.026Z,82.75
2018-05-01T02:20:13.912Z,82.99
2018-05-01T02:22:41.499Z,82.92
2018-05-01T02:25:09.059Z,83.27
2018-05-01T02:27:36.577Z,83.25
2018-05-01T02:30:04.585Z,83.33
2018-05-01T02:32:32.041Z,83.29
2018-05-01T02:34:59.023Z,83.41
2018-05-01T02:37:26.007Z,83.50
2018-05-01T02:39:53.035Z,83.63
2018-05-01T02:42:20.041Z,83.69
2018-05-01T02:44:47.023Z,83.74
2018-05-01T02:47:14.827Z,83.75
2018-05-01T02:49:42.323Z,83.75
2018-05-01T02:52:10.056Z,83.76
2018-05-01T02:54:37.039Z,83.85
2018-05-01T02:57:04.023Z,84.08
2018-05-01T02:59:31.064Z,83.99
2018-05-01T03:01:59.019Z,84.22
2018-05-01T03:04:26.014Z,84.29
2018-05-01T03:06:53.012Z,84.37
2018-05-01T03:09:20.255Z,84.45
2018-05-01T03:11:47.311Z,84.54
2018-05-01T03:14:15.190Z,84.29
2018-05-01T03:16:42.185Z,84.22
2018-05-01T03:19:09.789Z,83.85
2018-05-01T03:21:36.778Z,83.61
2018-05-01T03:24:03.758Z,83.45
2018-05-01T03:26:31.648Z,83.35
2018-05-01T03:28:59.142Z,83.47
2018-05-01T03:31:26.120Z,83.33
2018-05-01T03:33:53.785Z,83.32
2018-05-01T03:36:20.847Z,83.74
2018-05-01T03:38:47.828Z,83.83
2018-05-01T03:41:15.471Z,84.17
2018-05-01T03:43:42.464Z,84.11
2018-05-01T03:46:09.454Z,84.19
2018-05-01T03:48:36.998Z,84.05
2018-05-01T03:51:03.975Z,84.39
2018-05-01T03:53:30.975Z,84.63
2018-05-01T03:55:58.054Z,84.57
2018-05-01T03:58:25.022Z,84.46
2018-05-01T04:00:52.793Z,84.23
2018-05-01T04:03:19.902Z,83.99
2018-05-01T04:05:47.396Z,83.84
2018-05-01T04:08:14.443Z,83.65
2018-05-01T04:10:41.431Z,83.19
2018-05-01T04:13:09.197Z,83.34
2018-05-01T04:15:36.240Z,83.37
2018-05-01T04:18:03.602Z,83.54
2018-05-01T04:20:31.287Z,83.46
2018-05-01T04:22:58.271Z,83.41
2018-05-01T04:25:26.030Z,83.36
2018-05-01T04:27:53.562Z,83.32
2018-05-01T04:30:20.543Z,83.13
2018-05-01T04:32:47.563Z,83.01
2018-05-01T04:35:15.380Z,82.74
2018-05-01T04:37:42.887Z,82.76
2018-05-01T04:40:09.879Z,82.91
2018-05-01T04:42:37.464Z,82.68
2018-05-01T04:45:04.440Z,82.57
2018-05-01T04:47:32.259Z,82.75
2018-05-01T04:49:59.663Z,82.35
2018-05-01T04:52:26.652Z,82.51
2018-05-01T04:54:53.632Z,82.34
2018-05-01T04:57:20.905Z,82.38
2018-05-01T04:59:47.983Z,82.43
2018-05-01T05:02:14.965Z,82.31
2018-05-01T05:04:42.010Z,82.17
2018-05-01T05:07:09.915Z,82.31
2018-05-01T05:09:36.906Z,82.31
2018-05-01T05:12:03.899Z,82.24
2018-05-01T05:14:31.766Z,82.08
2018-05-01T05:16:58.751Z,81.80
2018-05-01T05:19:26.901Z,81.64
2018-05-01T05:21:53.879Z,81.50
2018-05-01T05:24:20.926Z,81.47
2018-05-01T05:26:48.821Z,81.12
2018-05-01T05:29:16.581Z,81.04
2018-05-01T05:31:43.606Z,80.85
2018-05-01T05:34:10.599Z,81.01
2018-05-01T05:36:37.616Z,81.14
2018-05-01T05:39:05.431Z,81.38
2018-05-01T05:41:34.108Z,81.18
2018-05-01T05:44:01.108Z,81.43
2018-05-01T05:46:28.091Z,81.44
2018-05-01T05:48:55.970Z,81.40
2018-05-01T05:51:22.987Z,81.40
2018-05-01T05:53:49.985Z,81.25
2018-05-01T05:56:17.002Z,81.39
2018-05-01T05:58:44.004Z,81.35
2018-05-01T06:01:11.020Z,80.65
2018-05-01T06:03:38.057Z,80.34
2018-05-01T06:06:05.045Z,80.67
2018-05-01T06:08:32.031Z,80.42
2018-05-01T06:10:59.950Z,80.25
2018-05-01T06:13:27.663Z,80.10
2018-05-01T06:15:54.695Z,79.75
2018-05-01T06:18:21.682Z,78.84
2018-05-01T06:20:49.393Z,77.88
2018-05-01T06:23:16.366Z,78.30
2018-05-01T06:25:44.470Z,78.21
2018-05-01T06:28:12.269Z,77.90
2018-05-01T06:30:39.339Z,76.68
2018-05-01T06:33:06.323Z,77.38
2018-05-01T06:35:33.359Z,77.54
2018-05-01T06:38:00.361Z,75.87
2018-05-01T06:40:28.439Z,76.00
2018-05-01T06:42:56.091Z,75.77
2018-05-01T06:45:23.079Z,75.33
2018-05-01T06:47:50.875Z,75.21
2018-05-01T06:50:18.454Z,74.65
2018-05-01T06:52:45.442Z,74.18
2018-05-01T06:55:12.440Z,74.08
2018-05-01T06:57:39.568Z,72.89
2018-05-01T07:00:06.551Z,72.76
2018-05-01T07:02:33.530Z,73.45
2018-05-01T07:05:00.561Z,73.67
2018-05-01T07:07:27.551Z,73.08
2018-05-01T07:09:55.166Z,73.58
2018-05-01T07:12:22.852Z,73.70
2018-05-01T07:14:50.851Z,74.26
2018-05-01T07:17:17.876Z,74.41
2018-05-01T07:19:45.624Z,74.05
2018-05-01T07:22:12.610Z,73.09
2018-05-01T07:24:39.636Z,73.33
2018-05-01T07:27:07.679Z,72.74
2018-05-01T07:29:34.681Z,72.14
2018-05-01T07:32:01.715Z,72.47
2018-05-01T07:34:28.742Z,72.06
2018-05-01T07:36:55.732Z,71.55
2018-05-01T07:39:22.799Z,71.05
2018-05-01T07:41:50.323Z,71.00
2018-05-01T07:44:17.378Z,71.15
2018-05-01T07:46:44.367Z,70.89
2018-05-01T07:49:12.002Z,71.28
2018-05-01T07:51:39.647Z,69.69
2018-05-01T07:54:06.651Z,70.09
2018-05-01T07:56:33.654Z,70.48
2018-05-01T07:59:00.664Z,70.64
2018-05-01T08:01:27.661Z,70.68
2018-05-01T08:03:54.644Z,70.88
2018-05-01T08:06:22.322Z,69.17
2018-05-01T08:08:49.894Z,69.12
2018-05-01T08:11:17.644Z,69.33
2018-05-01T08:13:45.347Z,69.27
2018-05-01T08:16:12.355Z,69.50
2018-05-01T08:18:40.174Z,68.93
2018-05-01T08:21:07.623Z,68.80
2018-05-01T08:23:34.610Z,68.41
2018-05-01T08:26:02.226Z,68.29
2018-05-01T08:28:30.213Z,66.75
2018-05-01T08:30:57.211Z,67.46
2018-05-01T08:33:24.199Z,66.32
2018-05-01T08:35:51.327Z,66.72
2018-05-01T08:38:18.531Z,66.05
2018-05-01T08:40:46.562Z,66.10
2018-05-01T08:43:13.555Z,67.21
2018-05-01T08:45:40.536Z,65.84
2018-05-01T08:48:08.348Z,66.90
2018-05-01T08:50:35.416Z,66.10
2018-05-01T08:53:03.127Z,65.92
2018-05-01T08:55:30.136Z,65.82
2018-05-01T08:57:57.127Z,64.70
2018-05-01T09:00:24.163Z,63.68
2018-05-01T09:02:51.328Z,64.37
2018-05-01T09:05:19.282Z,63.62
2018-05-01T09:07:46.267Z,64.48
2018-05-01T09:10:13.253Z,64.14
2018-05-01T09:12:41.185Z,64.38
2018-05-01T09:15:08.692Z,64.57
2018-05-01T09:17:35.744Z,64.26
2018-05-01T09:20:03.550Z,64.30
2018-05-01T09:22:31.012Z,64.63
2018-05-01T09:24:58.711Z,63.98
2018-05-01T09:27:26.668Z,64.03
2018-05-01T09:29:53.655Z,61.78
2018-05-01T09:32:20.639Z,62.15
2018-05-01T09:34:47.684Z,62.22
2018-05-01T09:37:14.691Z,62.83
2018-05-01T09:39:41.714Z,62.74
2018-05-01T09:42:09.339Z,64.20
2018-05-01T09:44:36.381Z,63.83
2018-05-01T09:47:04.314Z,63.26
2018-05-01T09:49:32.034Z,63.05
2018-05-01T09:51:59.655Z,62.90
2018-05-01T09:54:27.206Z,61.86
2018-05-01T09:56:54.733Z,61.54
2018-05-01T09:59:22.511Z,61.82
2018-05-01T10:01:50.247Z,61.93
2018-05-01T10:04:18.529Z,61.71
2018-05-01T10:06:46.081Z,59.71
2018-05-01T10:09:14.513Z,60.25
2018-05-01T10:11:42.592Z,60.93
2018-05-01T10:14:10.710Z,59.79
2018-05-01T10:16:38.444Z,61.31
2018-05-01T10:19:07.007Z,59.95
2018-05-01T10:21:34.533Z,60.81
2018-05-01T10:24:02.745Z,60.35
2018-05-01T10:26:31.595Z,59.49
2018-05-01T10:28:59.800Z,61.11
2018-05-01T10:31:27.322Z,61.26
2018-05-01T10:33:54.841Z,61.87
2018-05-01T10:36:23.156Z,61.83
2018-05-01T10:38:50.965Z,62.00
2018-05-01T10:41:19.330Z,62.58
2018-05-01T10:43:46.863Z,63.16
2018-05-01T10:46:14.391Z,62.90
2018-05-01T10:48:42.575Z,63.10
2018-05-01T10:51:10.107Z,63.39
2018-05-01T10:53:38.098Z,64.10
2018-05-01T10:56:05.618Z,64.83
2018-05-01T10:58:33.150Z,64.58
2018-05-01T11:01:01.272Z,64.86
2018-05-01T11:03:28.804Z,65.41
2018-05-01T11:05:56.336Z,64.40
2018-05-01T11:08:24.248Z,64.12
2018-05-01T11:10:52.166Z,63.51
2018-05-01T11:13:20.498Z,63.09
2018-05-01T11:15:48.018Z,63.31
2018-05-01T11:18:15.554Z,63.07
2018-05-01T11:20:43.720Z,62.80
2018-05-01T11:23:12.051Z,62.23
2018-05-01T11:25:40.323Z,62.79
2018-05-01T11:28:08.383Z,61.76
2018-05-01T11:30:35.938Z,61.48
2018-05-01T11:33:03.483Z,61.84
2018-05-01T11:35:31.482Z,61.46
2018-05-01T11:37:59.038Z,61.56
2018-05-01T11:40:26.575Z,60.96
2018-05-01T11:42:54.566Z,62.40
2018-05-01T11:45:22.189Z,61.87
2018-05-01T11:47:50.452Z,61.77
2018-05-01T11:50:17.986Z,62.50
2018-05-01T11:52:46.262Z,62.34
2018-05-01T11:55:13.786Z,61.96
2018-05-01T11:57:42.094Z,61.79
2018-05-01T12:00:09.592Z,61.69
2018-05-01T12:02:37.232Z,59.56
2018-05-01T12:05:04.889Z,59.55
2018-05-01T12:07:32.823Z,60.87
2018-05-01T12:10:00.703Z,60.37
2018-05-01T12:12:28.238Z,60.02
2018-05-01T12:14:56.343Z,58.80
2018-05-01T12:17:25.016Z,59.15
2018-05-01T12:19:53.590Z,59.82
2018-05-01T12:22:21.770Z,59.88
2018-05-01T12:24:49.463Z,60.34
2018-05-01T12:27:17.802Z,61.52
2018-05-01T12:29:45.320Z,61.17
2018-05-01T12:32:12.852Z,59.97
2018-05-01T12:34:40.405Z,59.68
2018-05-01T12:37:08.000Z,59.80
2018-05-01T12:39:35.505Z,59.54
2018-05-01T12:42:03.653Z,59.93
2018-05-01T12:44:31.253Z,60.89
2018-05-01T12:46:59.526Z,61.26
2018-05-01T12:49:27.055Z,61.24
2018-05-01T12:51:55.430Z,60.63
2018-05-01T12:54:22.962Z,61.50
2018-05-01T12:56:51.239Z,61.00
2018-05-01T12:59:18.920Z,60.76
2018-05-01T13:01:46.492Z,60.76
2018-05-01T13:04:14.046Z,60.10
2018-05-01T13:06:41.614Z,60.61
2018-05-01T13:09:10.416Z,60.66
2018-05-01T13:11:38.627Z,59.51
2018-05-01T13:14:06.686Z,59.34
2018-05-01T13:16:34.228Z,58.82
2018-05-01T13:19:02.448Z,57.44
2018-05-01T13:21:31.269Z,55.84
2018-05-01T13:23:59.465Z,54.70
2018-05-01T13:26:28.456Z,55.43
2018-05-01T13:28:56.548Z,55.89
2018-05-01T13:31:24.095Z,56.75
2018-05-01T13:33:51.660Z,57.66
2018-05-01T13:36:20.100Z,57.44
2018-05-01T13:38:47.629Z,58.45
2018-05-01T13:41:15.754Z,59.29
2018-05-01T13:43:43.286Z,59.48
2018-05-01T13:46:10.843Z,59.63
2018-05-01T13:48:39.463Z,59.15
2018-05-01T13:51:07.013Z,59.09
2018-05-01T13:53:35.421Z,59.31
2018-05-01T13:56:02.955Z,58.90
2018-05-01T13:58:30.497Z,59.22
2018-05-01T14:00:58.054Z,59.26
2018-05-01T14:03:25.591Z,59.94
2018-05-01T14:05:53.171Z,59.99
2018-05-01T14:08:21.630Z,60.99
2018-05-01T14:10:49.287Z,61.50
2018-05-01T14:13:17.545Z,61.68
2018-05-01T14:15:45.072Z,61.88
2018-05-01T14:18:12.604Z,61.82
2018-05-01T14:20:40.883Z,62.34
2018-05-01T14:23:09.232Z,62.43
2018-05-01T14:25:37.460Z,61.69
2018-05-01T14:28:06.440Z,60.83
2018-05-01T14:30:33.984Z,60.01
2018-05-01T14:33:01.507Z,58.78
2018-05-01T14:35:29.079Z,58.50
2018-05-01T14:37:56.625Z,58.11
2018-05-01T14:40:24.171Z,58.87
2018-05-01T14:42:52.166Z,59.94
2018-05-01T14:45:19.752Z,60.29
2018-05-01T14:47:47.922Z,60.31
2018-05-01T14:50:16.664Z,60.82
2018-05-01T14:52:44.701Z,61.64
2018-05-01T14:55:12.231Z,64.13
2018-05-01T14:57:39.753Z,65.08
2018-05-01T15:00:07.377Z,64.93
2018-05-01T15:02:34.898Z,64.96
2018-05-01T15:05:03.096Z,64.17
2018-05-01T15:07:31.292Z,65.75
2018-05-01T15:09:59.227Z,63.97
2018-05-01T15:12:26.778Z,58.34
2018-05-01T15:14:54.693Z,57.64
2018-05-01T15:17:22.358Z,56.57
2018-05-01T15:19:50.878Z,55.53
2018-05-01T15:22:18.438Z,55.11
2018-05-01T15:24:47.283Z,54.42
2018-05-01T15:27:15.447Z,54.02
2018-05-01T15:29:42.967Z,53.75
2018-05-01T15:32:10.495Z,53.92
2018-05-01T15:34:38.059Z,54.83
2018-05-01T15:37:05.588Z,54.58
2018-05-01T15:39:33.119Z,54.17
2018-05-01T15:42:01.307Z,53.18
2018-05-01T15:44:28.897Z,52.40
2018-05-01T15:46:57.414Z,50.41
2018-05-01T15:49:25.426Z,48.81
2018-05-01T15:51:53.571Z,49.02
2018-05-01T15:54:21.929Z,47.26
2018-05-01T15:56:50.142Z,46.48
2018-05-01T15:59:18.667Z,44.41
2018-05-01T16:01:46.190Z,44.97
2018-05-01T16:04:13.740Z,45.85
2018-05-01T16:06:41.334Z,47.07
2018-05-01T16:09:09.476Z,46.80
2018-05-01T16:11:36.990Z,48.06
2018-05-01T16:14:05.417Z,48.93
2018-05-01T16:16:32.897Z,49.82
2018-05-01T16:19:01.773Z,48.49
2018-05-01T16:21:29.302Z,50.13
2018-05-01T16:23:57.477Z,50.40
2018-05-01T16:26:25.592Z,50.49
2018-05-01T16:28:53.642Z,51.68
2018-05-01T16:31:21.299Z,53.24
2018-05-01T16:33:49.096Z,54.38
2018-05-01T16:36:16.583Z,55.76
2018-05-01T16:38:44.217Z,56.67
2018-05-01T16:41:12.239Z,56.51
2018-05-01T16:43:39.818Z,56.68
2018-05-01T16:46:08.140Z,56.84
2018-05-01T16:48:36.183Z,56.55
2018-05-01T16:51:04.215Z,57.03
2018-05-01T16:53:32.307Z,57.26
2018-05-01T16:56:00.423Z,57.70
2018-05-01T16:58:27.951Z,58.05
2018-05-01T17:00:55.488Z,57.99
2018-05-01T17:03:23.042Z,58.54
2018-05-01T17:05:51.232Z,58.98
2018-05-01T17:08:19.706Z,59.37
2018-05-01T17:10:47.247Z,59.59
2018-05-01T17:13:15.691Z,59.74
2018-05-01T17:15:43.221Z,59.52
2018-05-01T17:18:10.742Z,59.28
2018-05-01T17:20:38.615Z,59.15
2018-05-01T17:23:06.148Z,59.27
2018-05-01T17:25:34.548Z,59.32
2018-05-01T17:28:02.673Z,58.76
2018-05-01T17:30:30.151Z,59.02
2018-05-01T17:32:57.671Z,58.88
2018-05-01T17:35:25.239Z,59.08
2018-05-01T17:37:52.764Z,58.93
2018-05-01T17:40:20.456Z,59.32
2018-05-01T17:42:48.755Z,59.38
2018-05-01T17:45:16.906Z,59.52
2018-05-01T17:47:45.054Z,59.66
2018-05-01T17:50:12.638Z,59.80
2018-05-01T17:52:40.768Z,59.72
2018-05-01T17:55:08.992Z,60.03
2018-05-01T17:57:36.568Z,60.42
2018-05-01T18:00:04.127Z,60.02
2018-05-01T18:02:31.688Z,59.70
2018-05-01T18:04:59.211Z,60.20
2018-05-01T18:07:26.762Z,60.49
2018-05-01T18:09:55.039Z,60.56
2018-05-01T18:12:23.447Z,60.75
2018-05-01T18:14:51.595Z,61.07
2018-05-01T18:17:19.288Z,61.25
2018-05-01T18:19:47.387Z,61.31
2018-05-01T18:22:14.959Z,61.21
2018-05-01T18:24:42.522Z,61.35
2018-05-01T18:27:11.242Z,61.32
2018-05-01T18:29:38.880Z,61.50
2018-05-01T18:32:06.404Z,61.79
2018-05-01T18:34:33.982Z,61.84
2018-05-01T18:37:02.337Z,61.85
2018-05-01T18:39:29.887Z,61.97
2018-05-01T18:41:58.134Z,62.32
2018-05-01T18:44:25.678Z,62.45
2018-05-01T18:46:54.082Z,62.82
2018-05-01T18:49:21.615Z,62.88
2018-05-01T18:51:50.468Z,63.14
2018-05-01T18:54:19.046Z,63.54
2018-05-01T18:56:46.573Z,63.43
2018-05-01T18:59:14.121Z,63.30
2018-05-01T19:01:41.713Z,63.30
2018-05-01T19:04:09.235Z,62.40
2018-05-01T19:06:36.788Z,60.99
2018-05-01T19:09:07.736Z,60.49
2018-05-01T19:11:35.323Z,61.05
2018-05-01T19:14:03.352Z,61.61
2018-05-01T19:16:30.886Z,61.78
2018-05-01T19:18:59.159Z,61.77
2018-05-01T19:21:27.264Z,62.06
2018-05-01T19:23:54.778Z,61.52
2018-05-01T19:26:22.786Z,61.75
2018-05-01T19:28:51.325Z,61.79
2018-05-01T19:31:18.980Z,62.04
2018-05-01T19:33:46.547Z,62.12
2018-05-01T19:36:14.135Z,61.80
2018-05-01T19:38:43.189Z,61.38
2018-05-01T19:41:11.651Z,61.54
2018-05-01T19:43:39.200Z,61.46
2018-05-01T19:46:06.726Z,61.74
2018-05-01T19:48:34.968Z,61.63
2018-05-01T19:51:02.591Z,61.34
2018-05-01T19:53:30.627Z,61.21
2018-05-01T19:55:58.758Z,61.48
2018-05-01T19:58:26.299Z,61.25
2018-05-01T20:00:53.901Z,61.45
2018-05-01T20:03:21.548Z,61.29
2018-05-01T20:05:49.311Z,61.39
2018-05-01T20:08:17.463Z,61.14
2018-05-01T20:10:45.003Z,60.94
2018-05-01T20:13:13.618Z,61.08
2018-05-01T20:15:41.154Z,61.13
2018-05-01T20:18:08.716Z,61.37
2018-05-01T20:20:36.947Z,61.44
2018-05-01T20:23:04.495Z,61.11
2018-05-01T20:25:32.752Z,61.15
2018-05-01T20:28:01.227Z,61.10
2018-05-01T20:30:28.771Z,61.43
2018-05-01T20:32:56.303Z,61.56
2018-05-01T20:35:23.850Z,61.88
2018-05-01T20:37:52.099Z,62.53
2018-05-01T20:40:19.659Z,62.72
2018-05-01T20:42:47.734Z,62.98
2018-05-01T20:45:15.251Z,63.47
2018-05-01T20:47:43.424Z,63.63
2018-05-01T20:50:10.961Z,63.95
2018-05-01T20:52:39.038Z,64.11
2018-05-01T20:55:06.569Z,64.19
2018-05-01T20:57:34.113Z,64.01
2018-05-01T21:00:01.676Z,64.59
2018-05-01T21:02:30.391Z,64.55
2018-05-01T21:04:57.921Z,64.76
2018-05-01T21:07:25.450Z,64.28
2018-05-01T21:09:53.674Z,64.42
2018-05-01T21:12:21.306Z,64.69
2018-05-01T21:14:49.695Z,65.14
2018-05-01T21:17:17.833Z,65.27
2018-05-01T21:19:46.144Z,65.75
2018-05-01T21:22:13.755Z,65.92
2018-05-01T21:24:41.222Z,66.23
2018-05-01T21:27:09.294Z,66.71
2018-05-01T21:29:36.838Z,66.61
2018-05-01T21:32:04.383Z,67.25
2018-05-01T21:34:32.768Z,67.58
2018-05-01T21:37:00.293Z,67.88
2018-05-01T21:39:27.839Z,68.26
2018-05-01T21:41:55.767Z,68.48
2018-05-01T21:44:23.314Z,69.13
2018-05-01T21:46:52.143Z,69.55
2018-05-01T21:49:20.284Z,70.34
2018-05-01T21:51:47.859Z,70.82
2018-05-01T21:54:15.890Z,71.21
2018-05-01T21:56:44.041Z,71.83
2018-05-01T21:59:11.578Z,72.28
2018-05-01T22:01:39.976Z,71.87
2018-05-01T22:04:08.270Z,72.35
2018-05-01T22:06:36.455Z,73.03
2018-05-01T22:09:04.783Z,73.05
2018-05-01T22:11:32.340Z,73.28
2018-05-01T22:14:00.379Z,73.50
2018-05-01T22:16:27.924Z,73.42
2018-05-01T22:18:55.437Z,73.80
2018-05-01T22:21:23.554Z,73.69
2018-05-01T22:23:51.282Z,73.93
2018-05-01T22:26:19.991Z,74.00
2018-05-01T22:28:48.298Z,74.28
2018-05-01T22:31:16.704Z,74.36
2018-05-01T22:33:44.226Z,74.14
2018-05-01T22:36:11.815Z,74.37
2018-05-01T22:38:39.378Z,74.00
2018-05-01T22:41:07.658Z,74.23
2018-05-01T22:43:35.663Z,74.69
2018-05-01T22:46:03.354Z,74.49
2018-05-01T22:48:31.619Z,74.95
2018-05-01T22:50:59.139Z,74.77
2018-05-01T22:53:26.658Z,75.19
2018-05-01T22:55:55.395Z,75.00
2018-05-01T22:58:22.915Z,75.41
2018-05-01T23:00:51.823Z,75.68
2018-05-01T23:03:21.287Z,75.88
2018-05-01T23:05:49.868Z,76.23
2018-05-01T23:08:18.528Z,76.37
2018-05-01T23:10:46.087Z,76.99
2018-05-01T23:13:14.386Z,76.43
2018-05-01T23:15:43.447Z,76.73
2018-05-01T23:18:10.966Z,76.88
2018-05-01T23:20:39.092Z,76.86
2018-05-01T23:23:06.621Z,76.95
2018-05-01T23:25:34.808Z,77.04
2018-05-01T23:28:02.959Z,77.38
2018-05-01T23:30:30.951Z,77.06
2018-05-01T23:32:58.477Z,77.38
2018-05-01T23:35:26.014Z,77.17
2018-05-01T23:37:53.605Z,77.42
2018-05-01T23:40:22.022Z,77.58
2018-05-01T23:42:50.387Z,77.71
2018-05-01T23:45:17.900Z,77.61
2018-05-01T23:47:45.878Z,77.73
2018-05-01T23:50:14.137Z,77.71
2018-05-01T23:52:41.653Z,77.96
2018-05-01T23:55:09.167Z,77.74
2018-05-01T23:57:36.718Z,77.49
